Time;durP1;ratioP1;P1;durP2;ratioP2;P2;SDS_P1;SDS_P2;PMS_P1;PMS_P2;Temp;Humidity;BMP_temperature;BMP_pressure;BME280_temperature;BME280_humidity;BME280_pressure;Samples;Min_cycle;Max_cycle;Signal;HPM_P1;HPM_P2
2022/01/11 00:00:46;;;;;;;79.70;48.13;;;2.30;92.10;;;;;;5055560;28;20810;-67
2022/01/11 00:03:15;;;;;;;79.77;46.47;;;2.30;92.00;;;;;;5058224;28;20210;-67
2022/01/11 00:08:18;;;;;;;80.67;46.13;;;2.30;92.10;;;;;;5057129;28;20202;-67
2022/01/11 00:10:51;;;;;;;77.77;46.73;;;2.30;92.10;;;;;;5041403;28;20229;-67
2022/01/11 00:13:23;;;;;;;78.77;46.33;;;2.30;92.10;;;;;;5055691;28;20202;-67
2022/01/11 00:15:51;;;;;;;78.93;45.07;;;2.30;92.10;;;;;;5054638;28;20218;-67
2022/01/11 00:18:18;;;;;;;76.13;45.50;;;2.20;92.10;;;;;;5057416;28;20517;-67
2022/01/11 00:20:45;;;;;;;85.83;48.23;;;2.20;92.40;;;;;;5060792;28;20518;-67
2022/01/11 00:25:45;;;;;;;82.20;47.40;;;2.20;92.20;;;;;;5051553;28;20757;-67
2022/01/11 00:28:15;;;;;;;79.77;48.53;;;2.20;92.20;;;;;;5034693;28;20207;-67
2022/01/11 00:31:09;;;;;;;81.70;46.90;;;2.20;92.20;;;;;;5034561;28;20224;-67
2022/01/11 00:33:41;;;;;;;78.70;46.90;;;2.20;92.30;;;;;;5033876;28;20702;-67
2022/01/11 00:36:11;;;;;;;71.77;45.80;;;2.20;92.20;;;;;;5051077;28;20582;-67
2022/01/11 00:38:40;;;;;;;79.00;45.87;;;2.20;92.20;;;;;;5033502;28;20202;-67
2022/01/11 00:41:10;;;;;;;79.10;44.83;;;2.10;92.20;;;;;;5008358;28;20194;-67
2022/01/11 00:43:39;;;;;;;70.67;44.43;;;2.10;92.20;;;;;;5037541;28;20214;-67
2022/01/11 00:46:07;;;;;;;76.73;44.63;;;2.10;92.30;;;;;;5017545;28;20230;-67
2022/01/11 00:48:39;;;;;;;73.27;45.87;;;2.10;92.20;;;;;;5053252;28;20307;-67
2022/01/11 00:51:09;;;;;;;83.47;48.20;;;2.10;92.50;;;;;;5032561;28;20268;-67
2022/01/11 00:53:40;;;;;;;75.77;44.93;;;2.10;92.10;;;;;;5050425;28;20206;-67
2022/01/11 00:56:08;;;;;;;77.77;47.30;;;2.00;92.10;;;;;;5021223;28;20252;-67
2022/01/11 00:58:35;;;;;;;77.07;46.70;;;2.00;92.20;;;;;;4997130;28;20200;-67
2022/01/11 01:01:02;;;;;;;78.03;47.57;;;2.00;92.20;;;;;;5011610;28;20195;-67
2022/01/11 01:03:29;;;;;;;86.47;47.90;;;2.10;92.30;;;;;;5011207;28;20257;-67
2022/01/11 01:05:57;;;;;;;83.00;47.63;;;2.00;92.30;;;;;;5015461;28;20204;-67
2022/01/11 01:08:27;;;;;;;77.60;46.77;;;2.00;92.30;;;;;;5009739;28;20211;-67
2022/01/11 01:10:54;;;;;;;75.63;48.17;;;2.00;92.20;;;;;;4977417;28;20222;-67
2022/01/11 01:13:27;;;;;;;75.67;48.07;;;2.00;92.20;;;;;;5024969;28;20245;-67
2022/01/11 01:16:05;;;;;;;77.30;45.57;;;2.00;92.20;;;;;;5007854;28;20565;-67
2022/01/11 01:18:51;;;;;;;81.03;46.43;;;2.00;92.20;;;;;;5011457;28;20301;-67
2022/01/11 01:21:18;;;;;;;76.57;46.77;;;2.00;92.20;;;;;;5012403;28;20549;-67
2022/01/11 01:23:46;;;;;;;79.43;44.73;;;1.90;92.00;;;;;;5012864;28;20217;-67
2022/01/11 01:26:14;;;;;;;81.03;45.87;;;1.90;92.00;;;;;;5012220;28;20310;-67
2022/01/11 01:28:41;;;;;;;75.83;45.27;;;1.90;92.00;;;;;;5008790;28;20208;-67
2022/01/11 01:31:08;;;;;;;77.03;44.40;;;1.90;92.00;;;;;;5014943;28;20208;-67
2022/01/11 01:33:36;;;;;;;75.80;46.17;;;1.80;92.00;;;;;;5009786;28;20208;-67
2022/01/11 01:36:08;;;;;;;77.87;44.33;;;1.80;92.00;;;;;;5017612;28;20281;-67
2022/01/11 01:38:35;;;;;;;70.00;43.53;;;1.80;92.00;;;;;;5017155;28;20204;-67
2022/01/11 01:41:13;;;;;;;74.30;45.77;;;1.80;92.00;;;;;;5017854;28;20246;-67
2022/01/11 01:43:41;;;;;;;75.37;44.27;;;1.80;92.00;;;;;;5018770;28;20408;-67
2022/01/11 01:46:08;;;;;;;70.53;44.87;;;1.80;92.00;;;;;;5016537;28;20273;-67
2022/01/11 01:48:36;;;;;;;73.73;45.50;;;1.70;92.00;;;;;;5019544;28;20651;-67
2022/01/11 01:51:08;;;;;;;75.70;45.37;;;1.70;92.00;;;;;;5001897;28;20263;-67
2022/01/11 01:53:39;;;;;;;76.10;46.17;;;1.70;92.10;;;;;;5010079;28;20207;-67
2022/01/11 01:56:07;;;;;;;79.63;45.03;;;1.70;92.10;;;;;;5009361;28;20691;-67
2022/01/11 01:58:34;;;;;;;72.43;43.53;;;1.70;92.10;;;;;;5017920;28;20311;-67
2022/01/11 02:01:03;;;;;;;75.53;43.50;;;1.70;92.00;;;;;;5015470;28;20511;-67
2022/01/11 02:03:39;;;;;;;74.60;41.97;;;1.70;92.00;;;;;;5032695;28;20225;-67
2022/01/11 02:06:08;;;;;;;70.80;43.13;;;1.70;92.00;;;;;;5017909;28;20286;-67
2022/01/11 02:08:36;;;;;;;68.40;41.77;;;1.60;91.80;;;;;;5020096;28;20215;-67
2022/01/11 02:11:04;;;;;;;71.47;42.43;;;1.60;91.80;;;;;;5022645;28;20532;-67
2022/01/11 02:13:32;;;;;;;69.33;42.57;;;1.60;91.70;;;;;;5035537;28;20287;-67
2022/01/11 02:16:04;;;;;;;69.50;42.80;;;1.60;91.80;;;;;;5020624;28;20259;-67
2022/01/11 02:18:32;;;;;;;70.83;41.87;;;1.50;91.80;;;;;;5028455;28;20680;-67
2022/01/11 02:21:07;;;;;;;66.63;42.07;;;1.50;91.80;;;;;;5016639;28;20235;-67
2022/01/11 02:23:35;;;;;;;68.63;40.70;;;1.50;91.80;;;;;;5021559;28;20271;-67
2022/01/11 02:26:04;;;;;;;73.30;42.20;;;1.50;91.80;;;;;;5030400;28;20212;-67
2022/01/11 02:28:33;;;;;;;65.17;40.63;;;1.50;91.70;;;;;;5032411;28;20212;-67
2022/01/11 02:31:07;;;;;;;69.93;42.60;;;1.40;91.80;;;;;;5019192;28;20205;-67
2022/01/11 02:33:44;;;;;;;69.90;42.17;;;1.50;91.90;;;;;;5017713;28;20215;-67
2022/01/11 02:36:37;;;;;;;72.03;41.07;;;1.50;91.90;;;;;;5005881;28;20395;-67
2022/01/11 02:39:24;;;;;;;71.33;42.77;;;1.50;91.90;;;;;;5020951;28;20394;-67
2022/01/11 02:42:00;;;;;;;71.53;42.83;;;1.50;91.80;;;;;;5035519;28;20686;-68
2022/01/11 02:44:35;;;;;;;72.17;42.40;;;1.50;92.00;;;;;;5023109;28;20226;-68
2022/01/11 02:47:05;;;;;;;64.90;40.43;;;1.50;92.00;;;;;;5013174;28;20212;-67
2022/01/11 02:49:35;;;;;;;66.87;41.37;;;1.50;92.00;;;;;;5031277;28;20528;-67
2022/01/11 02:52:17;;;;;;;65.93;41.40;;;1.50;91.90;;;;;;5015235;28;20282;-67
2022/01/11 02:54:51;;;;;;;67.93;37.97;;;1.50;91.90;;;;;;5025399;28;20557;-68
2022/01/11 02:57:20;;;;;;;71.43;40.83;;;1.40;91.80;;;;;;5020438;28;20666;-67
2022/01/11 02:59:52;;;;;;;69.00;40.73;;;1.40;91.80;;;;;;5035282;28;20639;-67
2022/01/11 03:02:20;;;;;;;63.47;39.50;;;1.40;91.90;;;;;;5018625;28;20294;-67
2022/01/11 03:04:49;;;;;;;61.50;37.30;;;1.40;91.90;;;;;;5035509;28;20228;-68
2022/01/11 03:07:20;;;;;;;60.17;38.47;;;1.50;92.00;;;;;;5035635;28;20264;-68
2022/01/11 03:10:13;;;;;;;60.07;37.27;;;1.50;92.00;;;;;;5053914;28;20302;-68
2022/01/11 03:12:45;;;;;;;61.20;36.73;;;1.50;92.00;;;;;;5034896;28;20546;-67
2022/01/11 03:15:13;;;;;;;58.40;36.77;;;1.50;91.90;;;;;;5036238;28;20223;-68
2022/01/11 03:17:43;;;;;;;62.00;36.93;;;1.50;91.90;;;;;;5028914;28;20206;-68
2022/01/11 03:20:11;;;;;;;59.23;38.00;;;1.60;91.90;;;;;;5021424;28;20626;-68
2022/01/11 03:22:40;;;;;;;56.90;35.20;;;1.50;91.70;;;;;;5048859;28;20556;-68
2022/01/11 03:25:10;;;;;;;56.70;35.13;;;1.50;91.70;;;;;;5036744;28;20199;-67
2022/01/11 03:27:40;;;;;;;57.03;34.20;;;1.50;91.60;;;;;;5018183;28;20634;-68
2022/01/11 03:30:10;;;;;;;56.83;33.63;;;1.50;91.60;;;;;;5036980;28;20220;-67
2022/01/11 03:32:40;;;;;;;49.73;31.90;;;1.50;91.60;;;;;;5018811;28;20283;-68
2022/01/11 03:35:14;;;;;;;48.70;31.13;;;1.50;91.60;;;;;;5033273;28;20321;-68
2022/01/11 03:37:44;;;;;;;50.00;30.33;;;1.60;91.60;;;;;;5034686;28;20222;-67
2022/01/11 03:40:15;;;;;;;48.80;27.70;;;1.60;91.40;;;;;;5018642;28;20214;-67
2022/01/11 03:42:42;;;;;;;48.50;30.47;;;1.60;90.80;;;;;;5034481;28;20206;-67
2022/01/11 03:45:13;;;;;;;45.10;29.93;;;1.60;90.90;;;;;;5034725;28;20211;-67
2022/01/11 03:47:40;;;;;;;43.47;28.17;;;1.60;90.90;;;;;;5038018;28;20719;-67
2022/01/11 03:50:09;;;;;;;44.63;28.70;;;1.60;91.00;;;;;;5034084;28;20206;-67
2022/01/11 03:52:38;;;;;;;47.00;28.53;;;1.60;90.60;;;;;;5037283;28;20264;-68
2022/01/11 03:55:20;;;;;;;41.87;26.97;;;1.50;90.20;;;;;;5035345;28;20254;-68
2022/01/11 03:57:52;;;;;;;42.67;26.93;;;1.50;90.20;;;;;;5024131;28;20594;-68
2022/01/11 04:00:19;;;;;;;39.37;25.53;;;1.50;90.30;;;;;;5035907;28;20301;-68
2022/01/11 04:02:50;;;;;;;46.73;27.23;;;1.50;90.50;;;;;;5036555;28;20247;-68
2022/01/11 04:05:19;;;;;;;47.03;27.23;;;1.50;90.50;;;;;;5024869;28;20217;-68
2022/01/11 04:07:46;;;;;;;40.70;26.50;;;1.40;90.40;;;;;;5039337;28;20533;-68
2022/01/11 04:10:13;;;;;;;39.10;25.30;;;1.50;90.80;;;;;;5039843;28;20550;-67
2022/01/11 04:12:41;;;;;;;42.80;26.63;;;1.50;90.50;;;;;;5043313;28;20296;-67
2022/01/11 04:15:08;;;;;;;40.43;24.77;;;1.50;90.50;;;;;;5054955;28;20207;-67
2022/01/11 04:17:36;;;;;;;40.27;24.60;;;1.50;90.50;;;;;;5040385;28;20558;-67
2022/01/11 04:20:03;;;;;;;35.53;23.60;;;1.50;90.30;;;;;;5033532;28;20253;-67
2022/01/11 04:22:31;;;;;;;34.80;23.37;;;1.50;90.00;;;;;;5032835;28;20336;-68
2022/01/11 04:24:58;;;;;;;36.03;22.57;;;1.50;89.60;;;;;;5051205;28;20571;-68
2022/01/11 04:27:26;;;;;;;37.97;22.27;;;1.50;89.30;;;;;;5033367;28;20214;-68
2022/01/11 04:29:54;;;;;;;33.87;21.30;;;1.40;88.90;;;;;;5034229;28;20301;-67
2022/01/11 04:32:21;;;;;;;38.00;22.53;;;1.50;88.70;;;;;;5032726;28;20768;-67
2022/01/11 04:34:49;;;;;;;36.97;22.33;;;1.40;88.80;;;;;;5034183;28;20244;-67
2022/01/11 04:37:17;;;;;;;36.37;22.97;;;1.40;89.00;;;;;;5034228;28;20242;-67
2022/01/11 04:39:45;;;;;;;35.20;22.17;;;1.40;89.20;;;;;;5018141;28;20210;-67
2022/01/11 04:42:14;;;;;;;34.67;22.60;;;1.40;89.40;;;;;;5031325;28;20655;-68
2022/01/11 04:44:42;;;;;;;35.77;21.73;;;1.40;89.50;;;;;;5035044;28;20242;-67
2022/01/11 04:47:09;;;;;;;33.50;21.83;;;1.40;89.70;;;;;;5018846;28;20211;-68
2022/01/11 04:49:36;;;;;;;36.73;22.87;;;1.40;89.70;;;;;;5036538;28;20214;-68
2022/01/11 04:52:05;;;;;;;33.53;20.57;;;1.30;89.50;;;;;;5018261;28;20222;-67
2022/01/11 04:54:32;;;;;;;38.00;21.60;;;1.30;89.60;;;;;;5019761;28;20513;-67
2022/01/11 04:57:00;;;;;;;34.90;21.73;;;1.30;89.70;;;;;;4998333;28;20308;-67
2022/01/11 04:59:31;;;;;;;30.77;20.60;;;1.30;90.00;;;;;;5033047;28;20202;-67
2022/01/11 05:01:58;;;;;;;34.27;21.07;;;1.30;89.60;;;;;;5036242;28;20241;-68
2022/01/11 05:04:25;;;;;;;31.93;21.27;;;1.30;89.60;;;;;;5033453;28;20386;-67
2022/01/11 05:06:55;;;;;;;33.80;20.93;;;1.30;89.40;;;;;;5032547;28;20207;-67
2022/01/11 05:09:23;;;;;;;32.27;21.00;;;1.30;89.20;;;;;;5023888;28;20207;-67
2022/01/11 05:11:51;;;;;;;33.97;21.13;;;1.20;88.90;;;;;;5037296;28;20213;-67
2022/01/11 05:14:18;;;;;;;31.70;19.70;;;1.20;89.10;;;;;;5037545;28;20628;-67
2022/01/11 05:16:50;;;;;;;29.40;19.73;;;1.20;89.40;;;;;;5027686;28;20680;-67
2022/01/11 05:19:18;;;;;;;34.53;20.67;;;1.20;89.40;;;;;;5055894;28;20214;-67
2022/01/11 05:21:48;;;;;;;30.17;19.63;;;1.20;89.30;;;;;;5037760;28;20237;-67
2022/01/11 05:24:15;;;;;;;30.40;20.27;;;1.20;89.30;;;;;;5039810;28;20222;-67
2022/01/11 05:26:46;;;;;;;31.40;20.17;;;1.20;89.20;;;;;;5040002;28;20213;-67
2022/01/11 05:29:13;;;;;;;35.43;21.03;;;1.20;89.00;;;;;;5039776;28;20631;-67
2022/01/11 05:31:41;;;;;;;30.00;19.73;;;1.20;89.20;;;;;;5039363;28;20206;-68
2022/01/11 05:34:08;;;;;;;34.03;21.50;;;1.20;88.50;;;;;;5029377;28;20207;-68
2022/01/11 05:36:35;;;;;;;35.10;20.47;;;1.20;88.40;;;;;;5038763;28;20254;-68
2022/01/11 05:39:03;;;;;;;34.23;20.93;;;1.20;88.50;;;;;;5020007;28;20221;-68
2022/01/11 05:41:31;;;;;;;29.47;19.53;;;1.20;88.70;;;;;;5036298;28;20680;-68
2022/01/11 05:43:59;;;;;;;34.13;21.50;;;1.10;88.80;;;;;;5036857;28;20210;-68
2022/01/11 05:46:27;;;;;;;31.83;19.43;;;1.10;88.90;;;;;;5036745;28;20691;-68
2022/01/11 05:48:55;;;;;;;31.70;20.07;;;1.10;89.00;;;;;;5035248;28;20655;-67
2022/01/11 05:51:22;;;;;;;34.17;21.17;;;1.10;88.90;;;;;;5034039;28;20222;-67
2022/01/11 05:53:49;;;;;;;32.20;20.07;;;1.10;88.80;;;;;;5037314;28;20214;-67
2022/01/11 05:56:16;;;;;;;33.17;20.40;;;1.00;88.80;;;;;;5020615;28;20235;-67
2022/01/11 05:58:43;;;;;;;29.37;19.80;;;1.00;88.60;;;;;;5037314;28;20209;-67
2022/01/11 06:01:12;;;;;;;30.70;20.33;;;1.00;88.60;;;;;;5037953;28;20540;-67
2022/01/11 06:03:40;;;;;;;30.07;19.70;;;1.00;88.80;;;;;;5037058;28;20221;-67
2022/01/11 06:06:07;;;;;;;34.73;20.20;;;1.00;88.70;;;;;;5037807;28;20309;-67
2022/01/11 06:08:35;;;;;;;31.87;19.47;;;1.00;88.60;;;;;;5039304;28;20241;-67
2022/01/11 06:11:03;;;;;;;33.93;19.63;;;1.00;88.70;;;;;;5038810;28;20549;-67
2022/01/11 06:13:35;;;;;;;33.13;20.57;;;1.00;88.80;;;;;;5038174;28;20635;-67
2022/01/11 06:16:03;;;;;;;31.77;20.03;;;0.90;88.80;;;;;;5004281;28;20227;-67
2022/01/11 06:18:30;;;;;;;36.97;21.10;;;0.90;88.90;;;;;;5037852;28;20789;-68
2022/01/11 06:21:09;;;;;;;34.77;21.90;;;0.90;89.10;;;;;;5038425;28;20222;-68
2022/01/11 06:23:37;;;;;;;33.63;21.67;;;0.90;89.20;;;;;;5021374;28;20206;-67
2022/01/11 06:26:04;;;;;;;37.10;20.73;;;0.90;89.30;;;;;;5040016;28;20212;-67
2022/01/11 06:28:32;;;;;;;35.87;21.70;;;0.90;89.40;;;;;;5038605;28;20554;-67
2022/01/11 06:30:59;;;;;;;32.57;20.57;;;0.90;89.50;;;;;;5039660;28;20221;-67
2022/01/11 06:33:26;;;;;;;32.30;19.83;;;0.90;89.50;;;;;;5041277;28;20305;-67
2022/01/11 06:35:53;;;;;;;31.73;20.00;;;0.90;89.30;;;;;;5040840;28;20215;-67
2022/01/11 06:38:20;;;;;;;33.30;21.77;;;0.90;89.40;;;;;;5021902;28;20222;-67
2022/01/11 06:40:48;;;;;;;32.27;20.77;;;0.90;89.40;;;;;;5035403;28;20604;-67
2022/01/11 06:43:15;;;;;;;36.17;22.40;;;0.90;89.30;;;;;;5019813;28;20215;-68
2022/01/11 06:45:43;;;;;;;31.57;18.13;;;0.90;89.20;;;;;;5036221;28;20204;-67
2022/01/11 06:48:14;;;;;;;30.40;20.03;;;0.90;89.20;;;;;;5036179;28;20641;-67
2022/01/11 06:50:41;;;;;;;32.10;19.00;;;0.90;89.30;;;;;;5035166;28;20210;-68
2022/01/11 06:53:09;;;;;;;30.03;18.83;;;0.90;89.40;;;;;;5033075;28;20199;-68
2022/01/11 06:55:42;;;;;;;28.73;18.83;;;0.90;89.30;;;;;;5039333;28;20246;-67
2022/01/11 06:58:10;;;;;;;30.27;17.30;;;0.90;89.20;;;;;;5034646;28;20226;-67
2022/01/11 07:00:38;;;;;;;33.27;18.47;;;0.90;89.30;;;;;;5033734;28;20664;-68
2022/01/11 07:03:10;;;;;;;30.83;16.93;;;0.90;89.30;;;;;;5035817;28;20218;-68
2022/01/11 07:05:56;;;;;;;30.87;17.83;;;0.90;89.30;;;;;;5035683;28;20276;-67
2022/01/11 07:08:27;;;;;;;30.77;17.97;;;1.00;89.30;;;;;;5036200;28;20320;-67
2022/01/11 07:10:54;;;;;;;28.07;18.13;;;1.00;89.20;;;;;;5036276;28;20218;-67
2022/01/11 07:13:21;;;;;;;32.90;18.23;;;1.00;89.10;;;;;;5037220;28;20629;-68
2022/01/11 07:15:49;;;;;;;31.50;18.77;;;1.10;88.80;;;;;;5035026;28;20552;-68
2022/01/11 07:18:16;;;;;;;30.53;18.87;;;1.10;88.40;;;;;;5054023;28;20222;-68
2022/01/11 07:20:44;;;;;;;34.07;19.17;;;1.10;88.20;;;;;;5036822;28;20675;-68
2022/01/11 07:23:19;;;;;;;32.97;18.77;;;1.10;87.90;;;;;;5031953;28;20207;-68
2022/01/11 07:25:47;;;;;;;31.20;18.87;;;1.20;87.90;;;;;;5033028;28;20203;-68
2022/01/11 07:28:15;;;;;;;28.67;18.37;;;1.20;88.10;;;;;;5033893;28;20309;-68
2022/01/11 07:30:45;;;;;;;29.60;18.83;;;1.20;88.00;;;;;;5034145;28;20668;-68
2022/01/11 07:33:13;;;;;;;31.83;19.20;;;1.20;87.50;;;;;;5047986;28;20552;-68
2022/01/11 07:35:41;;;;;;;30.87;19.73;;;1.30;87.50;;;;;;5035304;28;20242;-68
2022/01/11 07:38:08;;;;;;;32.97;19.60;;;1.30;87.70;;;;;;5023998;28;20578;-68
2022/01/11 07:40:37;;;;;;;34.33;20.40;;;1.40;87.90;;;;;;5035063;28;20612;-68
2022/01/11 07:43:22;;;;;;;31.13;19.50;;;1.40;88.00;;;;;;5036998;28;20255;-68
2022/01/11 07:45:54;;;;;;;29.87;20.27;;;1.50;88.00;;;;;;5035673;28;20292;-68
2022/01/11 07:48:26;;;;;;;37.30;21.77;;;1.50;88.00;;;;;;5035005;28;20226;-68
2022/01/11 07:51:00;;;;;;;37.97;22.37;;;1.60;88.00;;;;;;5021527;28;20222;-68
2022/01/11 07:53:27;;;;;;;43.07;22.20;;;1.60;87.80;;;;;;5035633;28;20666;-68
2022/01/11 07:56:00;;;;;;;36.27;20.50;;;1.70;87.80;;;;;;5022517;28;20257;-68
2022/01/11 07:58:31;;;;;;;30.90;20.53;;;1.70;87.80;;;;;;5035746;28;20646;-68
2022/01/11 08:00:58;;;;;;;31.63;20.40;;;1.80;87.80;;;;;;5034013;28;20277;-68
2022/01/11 08:03:31;;;;;;;29.97;19.03;;;1.80;87.80;;;;;;5039637;28;20199;-68
2022/01/11 08:06:04;;;;;;;30.87;20.03;;;1.90;87.90;;;;;;5039436;28;20237;-68
2022/01/11 08:08:34;;;;;;;31.77;19.83;;;2.00;87.90;;;;;;5002215;28;20222;-68
2022/01/11 08:11:02;;;;;;;34.87;21.10;;;2.10;87.80;;;;;;5026658;28;20225;-68
2022/01/11 08:13:30;;;;;;;27.97;19.63;;;2.10;87.50;;;;;;5034001;28;20218;-68
2022/01/11 08:15:57;;;;;;;30.80;18.30;;;2.20;87.40;;;;;;5033479;28;20561;-68
2022/01/11 08:18:25;;;;;;;29.87;19.07;;;2.30;87.20;;;;;;5014689;28;20239;-67
2022/01/11 08:20:53;;;;;;;32.50;19.77;;;2.40;87.10;;;;;;5033940;28;20216;-67
2022/01/11 08:23:21;;;;;;;29.43;19.97;;;2.40;86.90;;;;;;5017924;28;20244;-67
2022/01/11 08:25:48;;;;;;;31.37;21.13;;;2.50;86.90;;;;;;5034866;28;20207;-67
2022/01/11 08:28:15;;;;;;;31.03;21.33;;;2.50;86.80;;;;;;5035405;28;20235;-67
2022/01/11 08:30:52;;;;;;;31.33;20.30;;;2.60;86.70;;;;;;5035080;28;20205;-68
2022/01/11 08:33:19;;;;;;;36.93;23.43;;;2.70;86.80;;;;;;5034485;28;20320;-68
2022/01/11 08:35:46;;;;;;;35.77;23.37;;;2.70;86.60;;;;;;5035358;28;20230;-68
2022/01/11 08:38:16;;;;;;;40.10;25.63;;;2.80;86.50;;;;;;5035697;28;20322;-68
2022/01/11 08:40:47;;;;;;;38.07;26.73;;;2.90;86.50;;;;;;5034280;28;20212;-67
2022/01/11 08:43:14;;;;;;;36.17;24.47;;;2.90;86.40;;;;;;5020034;28;20258;-68
2022/01/11 08:45:42;;;;;;;43.70;25.93;;;3.00;86.50;;;;;;5035621;28;20245;-66
2022/01/11 08:48:13;;;;;;;39.73;26.20;;;3.10;86.60;;;;;;5033232;28;20310;-66
2022/01/11 08:50:53;;;;;;;53.17;35.20;;;3.20;86.50;;;;;;5034724;28;20690;-67
2022/01/11 08:53:24;;;;;;;67.07;45.13;;;3.30;86.30;;;;;;5031932;28;20318;-67
2022/01/11 08:55:52;;;;;;;211.83;128.33;;;3.30;86.20;;;;;;5035075;28;20299;-67
2022/01/11 08:58:22;;;;;;;189.77;131.87;;;3.40;86.30;;;;;;5033628;28;20227;-67
2022/01/11 09:00:52;;;;;;;100.47;76.40;;;3.40;86.40;;;;;;5050447;28;20245;-68
2022/01/11 09:03:23;;;;;;;64.47;44.23;;;3.50;86.40;;;;;;5016896;28;20598;-67
2022/01/11 09:05:52;;;;;;;39.50;27.23;;;3.60;86.50;;;;;;5015512;28;20199;-67
2022/01/11 09:08:20;;;;;;;41.13;27.43;;;3.60;84.70;;;;;;5032563;28;20309;-67
2022/01/11 09:10:50;;;;;;;37.83;26.97;;;3.60;83.80;;;;;;5033127;28;20630;-67
2022/01/11 09:13:19;;;;;;;41.90;27.47;;;3.60;84.40;;;;;;5034646;28;20608;-67
2022/01/11 09:15:47;;;;;;;41.40;28.93;;;3.70;84.90;;;;;;5034880;28;20712;-67
2022/01/11 09:18:15;;;;;;;41.90;28.63;;;3.70;85.10;;;;;;5050808;28;20267;-67
2022/01/11 09:20:45;;;;;;;44.73;27.83;;;3.80;85.40;;;;;;5033380;28;20211;-67
2022/01/11 09:23:14;;;;;;;46.50;29.77;;;3.90;85.50;;;;;;5031132;28;20200;-67
2022/01/11 09:25:45;;;;;;;42.90;29.47;;;4.00;85.40;;;;;;5027823;28;20274;-67
2022/01/11 09:28:16;;;;;;;43.90;30.70;;;4.00;85.30;;;;;;5030236;28;20250;-67
2022/01/11 09:30:45;;;;;;;42.50;31.30;;;4.10;86.00;;;;;;5032822;28;20243;-67
2022/01/11 09:33:14;;;;;;;58.53;45.83;;;4.20;85.40;;;;;;5031889;28;20225;-67
2022/01/11 09:35:42;;;;;;;41.40;29.10;;;4.30;86.00;;;;;;5038597;28;20252;-67
2022/01/11 09:38:15;;;;;;;45.33;33.73;;;4.40;85.00;;;;;;5033732;28;20245;-67
2022/01/11 09:40:44;;;;;;;41.83;30.17;;;4.50;84.80;;;;;;5017204;28;20549;-67
2022/01/11 09:43:12;;;;;;;40.07;29.10;;;4.50;84.70;;;;;;5030629;28;20196;-67
2022/01/11 09:45:44;;;;;;;38.20;27.33;;;4.60;84.70;;;;;;5032364;28;20582;-67
2022/01/11 09:48:12;;;;;;;45.90;31.00;;;4.70;84.60;;;;;;5032833;28;20207;-68
2022/01/11 09:50:44;;;;;;;36.37;26.57;;;4.80;84.40;;;;;;5017295;28;20731;-68
2022/01/11 09:53:12;;;;;;;43.40;31.57;;;4.90;84.30;;;;;;5048700;28;20315;-68
2022/01/11 09:55:44;;;;;;;45.80;34.23;;;5.00;83.90;;;;;;5032368;28;20247;-68
2022/01/11 09:58:14;;;;;;;101.87;79.13;;;5.00;83.80;;;;;;5035509;28;20324;-67
2022/01/11 10:00:51;;;;;;;48.77;32.70;;;5.10;83.80;;;;;;5037439;28;20196;-67
2022/01/11 10:04:04;;;;;;;43.87;30.03;;;5.20;83.70;;;;;;5053224;28;20280;-67
2022/01/11 10:07:08;;;;;;;42.37;29.60;;;5.30;83.60;;;;;;5052174;28;20285;-68
2022/01/11 10:09:48;;;;;;;49.33;36.33;;;5.40;83.40;;;;;;5039292;28;20221;-67
2022/01/11 10:12:18;;;;;;;40.33;29.90;;;5.50;83.30;;;;;;5033072;28;20203;-67
2022/01/11 10:14:50;;;;;;;56.60;38.83;;;5.60;83.20;;;;;;5022001;28;20224;-67
2022/01/11 10:17:21;;;;;;;45.10;33.17;;;5.60;82.90;;;;;;5037652;28;20236;-67
2022/01/11 10:20:20;;;;;;;46.30;32.77;;;5.70;82.60;;;;;;5037216;28;20207;-67
2022/01/11 10:23:08;;;;;;;55.23;40.23;;;5.80;82.50;;;;;;5036541;28;20197;-67
2022/01/11 10:25:47;;;;;;;49.27;37.20;;;5.90;82.20;;;;;;5038333;28;20216;-67
2022/01/11 10:28:33;;;;;;;50.07;35.10;;;6.00;82.10;;;;;;5026658;28;20223;-67
2022/01/11 10:31:02;;;;;;;43.73;31.70;;;6.00;81.00;;;;;;5025830;28;20228;-67
2022/01/11 10:33:31;;;;;;;43.60;30.13;;;6.10;81.10;;;;;;5032035;28;20262;-67
2022/01/11 10:35:58;;;;;;;41.87;30.90;;;6.20;81.10;;;;;;5038205;28;20212;-67
2022/01/11 10:38:42;;;;;;;52.20;33.13;;;6.20;81.30;;;;;;5020001;28;20237;-67
2022/01/11 10:41:43;;;;;;;46.30;32.80;;;6.30;81.50;;;;;;5032743;28;20655;-67
2022/01/11 10:44:47;;;;;;;52.00;38.63;;;6.40;81.80;;;;;;5049897;28;20217;-68
2022/01/11 10:47:40;;;;;;;47.00;33.30;;;6.50;81.90;;;;;;5034967;28;20274;-67
2022/01/11 10:50:28;;;;;;;55.07;42.10;;;6.70;81.60;;;;;;5026529;28;20573;-68
2022/01/11 10:53:01;;;;;;;55.03;39.80;;;6.70;81.40;;;;;;5019427;28;20210;-67
2022/01/11 10:55:33;;;;;;;46.73;34.07;;;6.80;81.40;;;;;;5035426;28;20248;-67
2022/01/11 10:58:22;;;;;;;42.17;29.10;;;6.90;81.30;;;;;;5023293;28;20540;-67
2022/01/11 11:00:55;;;;;;;38.23;28.37;;;7.00;80.60;;;;;;5033478;28;20213;-67
2022/01/11 11:03:26;;;;;;;42.93;30.30;;;7.00;80.50;;;;;;5035588;28;20308;-67
2022/01/11 11:06:08;;;;;;;53.67;35.80;;;7.10;80.40;;;;;;5036741;28;20337;-67
2022/01/11 11:08:47;;;;;;;42.40;32.13;;;7.20;80.40;;;;;;5021879;28;20220;-67
2022/01/11 11:11:25;;;;;;;42.93;29.93;;;7.30;80.50;;;;;;5053136;28;20292;-67
2022/01/11 11:14:18;;;;;;;40.10;29.33;;;7.40;79.90;;;;;;5040857;28;20667;-69
2022/01/11 11:17:26;;;;;;;45.70;32.47;;;7.60;80.00;;;;;;5033926;28;20221;-67
2022/01/11 11:20:01;;;;;;;57.20;36.83;;;7.70;80.00;;;;;;5023852;28;20205;-67
2022/01/11 11:22:30;;;;;;;48.83;37.10;;;7.80;79.60;;;;;;5033799;28;20301;-67
2022/01/11 11:24:57;;;;;;;39.63;30.80;;;7.90;79.40;;;;;;5048260;28;20210;-67
2022/01/11 11:27:28;;;;;;;48.73;35.73;;;8.00;79.10;;;;;;5016982;28;20215;-68
2022/01/11 11:29:55;;;;;;;49.63;36.80;;;8.10;79.00;;;;;;5032237;28;20224;-67
2022/01/11 11:32:22;;;;;;;45.50;34.13;;;8.20;79.50;;;;;;5053098;28;20209;-67
2022/01/11 11:34:50;;;;;;;47.23;31.30;;;8.20;79.40;;;;;;5035105;28;20234;-68
2022/01/11 11:37:27;;;;;;;37.90;28.37;;;8.40;79.10;;;;;;5050610;28;20541;-67
2022/01/11 11:39:57;;;;;;;37.97;26.77;;;8.50;78.50;;;;;;5051684;28;20213;-67
2022/01/11 11:42:25;;;;;;;35.40;27.13;;;8.60;77.70;;;;;;5052777;28;20785;-67
2022/01/11 11:44:52;;;;;;;30.90;24.53;;;8.60;77.10;;;;;;5054782;28;20209;-68
2022/01/11 11:47:34;;;;;;;38.30;26.77;;;8.70;76.20;;;;;;5050918;28;20209;-68
2022/01/11 11:50:05;;;;;;;34.93;26.23;;;8.80;75.00;;;;;;5050784;28;20300;-67
2022/01/11 11:52:39;;;;;;;34.70;25.50;;;8.80;75.50;;;;;;5056125;28;20195;-67
2022/01/11 11:55:10;;;;;;;35.10;26.10;;;8.90;75.40;;;;;;5055413;28;20714;-67
2022/01/11 11:57:42;;;;;;;34.30;27.30;;;9.00;75.60;;;;;;5050808;28;20201;-67
2022/01/11 12:00:19;;;;;;;36.83;30.33;;;9.10;75.90;;;;;;5050855;28;20198;-67
2022/01/11 12:02:49;;;;;;;35.40;25.87;;;9.20;76.00;;;;;;5025370;28;20235;-67
2022/01/11 12:05:47;;;;;;;37.50;26.07;;;9.30;76.20;;;;;;5049247;28;20198;-67
2022/01/11 12:08:34;;;;;;;35.67;25.93;;;9.50;76.10;;;;;;5035933;28;20550;-67
2022/01/11 12:11:10;;;;;;;34.60;25.50;;;9.60;76.10;;;;;;5031160;28;20542;-67
2022/01/11 12:13:50;;;;;;;34.03;25.23;;;9.70;76.00;;;;;;5052166;28;20296;-67
2022/01/11 12:16:25;;;;;;;29.73;23.50;;;9.80;75.70;;;;;;5021410;28;20214;-67
2022/01/11 12:19:08;;;;;;;31.87;25.43;;;9.90;75.20;;;;;;5050912;28;20222;-67
2022/01/11 12:21:52;;;;;;;34.50;24.83;;;10.00;75.20;;;;;;5050537;28;21046;-67
2022/01/11 12:24:39;;;;;;;34.37;24.67;;;10.00;74.80;;;;;;5054597;28;20209;-67
2022/01/11 12:27:10;;;;;;;30.47;23.97;;;10.10;74.70;;;;;;5051252;28;20217;-67
2022/01/11 12:29:51;;;;;;;30.73;21.50;;;10.10;73.10;;;;;;5036496;28;20651;-67
2022/01/11 12:32:19;;;;;;;34.03;24.07;;;10.10;73.00;;;;;;5050878;28;20206;-67
2022/01/11 12:34:46;;;;;;;31.30;22.97;;;10.10;72.80;;;;;;5056200;28;20653;-67
2022/01/11 12:37:26;;;;;;;39.40;31.60;;;10.10;73.20;;;;;;5053291;28;20224;-67
2022/01/11 12:40:31;;;;;;;29.23;21.97;;;10.20;73.10;;;;;;5018696;28;20231;-67
2022/01/11 12:43:07;;;;;;;28.30;22.13;;;10.20;72.20;;;;;;5051667;28;20203;-67
2022/01/11 12:46:01;;;;;;;35.77;28.13;;;10.20;72.50;;;;;;5055452;28;20199;-68
2022/01/11 12:48:45;;;;;;;41.67;28.63;;;10.30;72.90;;;;;;5017267;28;20642;-67
2022/01/11 12:51:23;;;;;;;60.87;41.87;;;10.30;73.20;;;;;;5055584;28;20202;-68
2022/01/11 12:54:08;;;;;;;45.73;31.27;;;10.30;72.90;;;;;;5033105;28;20238;-67
2022/01/11 12:56:39;;;;;;;104.83;67.53;;;10.40;72.30;;;;;;5055914;28;20268;-67
2022/01/11 12:59:07;;;;;;;62.83;43.53;;;10.40;72.10;;;;;;5049787;28;20229;-67
2022/01/11 13:01:34;;;;;;;28.40;19.37;;;10.40;71.40;;;;;;5035605;28;20216;-67
2022/01/11 13:04:02;;;;;;;23.80;17.77;;;10.50;71.60;;;;;;5051463;28;20426;-67